Time;durP1;ratioP1;P1;durP2;ratioP2;P2;SDS_P1;SDS_P2;PMS_P1;PMS_P2;Temp;Humidity;BMP_temperature;BMP_pressure;BME280_temperature;BME280_humidity;BME280_pressure;Samples;Min_cycle;Max_cycle;Signal;HPM_P1;HPM_P2
2021/11/26 00:01:14;;;;;;;;;;;;;;;21.12;33.12;100918.85;97259;1412;72739;-80
2021/11/26 00:07:26;;;;;;;;;;;;;;;21.12;33.19;100915.63;96870;1415;61314;-81
2021/11/26 00:10:33;;;;;;;;;;;;;;;21.13;33.23;100916.83;97220;1410;61659;-80
2021/11/26 00:13:40;;;;;;;;;;;;;;;21.13;33.23;100917.73;97603;1408;72859;-80
2021/11/26 00:16:38;;;;;;;;;;;;;;;;;;;;;
2021/11/26 00:19:41;;;;;;;;;;;;;;;;;;;;;
2021/11/26 00:23:08;;;;;;;;;;;;;;;21.13;33.23;100910.91;98659;1395;62042;-80
2021/11/26 00:25:53;;;;;;;;;;;;;;;;;;;;;
2021/11/26 00:29:00;;;;;;;;;;;;;;;21.14;33.13;100907.29;99691;1383;74198;-79
2021/11/26 00:32:16;;;;;;;;;;;;;;;;;;;;;
2021/11/26 00:35:10;;;;;;;;;;;;;;;;;;;;;
2021/11/26 00:38:36;;;;;;;;;;;;;;;21.14;33.14;100888.44;98584;1392;71674;-81
2021/11/26 00:41:33;;;;;;;;;;;;;;;21.14;33.21;100888.27;98375;1396;74161;-81
2021/11/26 00:44:33;;;;;;;;;;;;;;;21.14;33.19;100883.48;98490;1392;61398;-81
2021/11/26 00:47:29;;;;;;;;;;;;;;;;;;;;;
2021/11/26 00:50:36;;;;;;;;;;;;;;;21.14;33.18;100877.70;98683;1397;74104;-82
2021/11/26 00:53:32;;;;;;;;;;;;;;;;;;;;;
2021/11/26 00:56:27;;;;;;;;;;;;;;;21.14;33.12;100860.53;98716;1393;60545;-81
2021/11/26 01:02:21;;;;;;;;;;;;;;;21.15;33.05;100867.09;98327;1398;71823;-81
2021/11/26 01:05:32;;;;;;;;;;;;;;;21.15;32.92;100874.98;98538;1392;74441;-80
2021/11/26 01:08:40;;;;;;;;;;;;;;;21.15;32.94;100872.83;98589;1395;60601;-80
2021/11/26 01:11:43;;;;;;;;;;;;;;;21.15;33.11;100866.55;98658;1395;60489;-80
2021/11/26 01:15:00;;;;;;;;;;;;;;;;;;;;;
2021/11/26 01:18:06;;;;;;;;;;;;;;;21.15;33.08;100861.52;99186;1382;71872;-80
2021/11/26 01:21:40;;;;;;;;;;;;;;;21.15;33.01;100857.21;99582;1383;61828;-80
2021/11/26 01:24:20;;;;;;;;;;;;;;;;;;;;;
2021/11/26 01:27:10;;;;;;;;;;;;;;;21.16;32.90;100844.88;99776;1377;72891;-80
2021/11/26 01:30:08;;;;;;;;;;;;;;;;;;;;;
2021/11/26 01:36:36;;;;;;;;;;;;;;;21.16;32.87;100832.30;100202;1374;60754;-81
2021/11/26 01:39:24;;;;;;;;;;;;;;;;;;;;;
2021/11/26 01:42:46;;;;;;;;;;;;;;;;;;;;;
2021/11/26 01:45:52;;;;;;;;;;;;;;;;;;;;;
2021/11/26 01:48:40;;;;;;;;;;;;;;;;;;;;;
2021/11/26 01:51:52;;;;;;;;;;;;;;;21.16;32.94;100786.45;101294;1365;71621;-80
2021/11/26 01:54:58;;;;;;;;;;;;;;;21.17;32.88;100787.16;100658;1368;72748;-81
2021/11/26 01:57:56;;;;;;;;;;;;;;;;;;;;;
2021/11/26 02:00:42;;;;;;;;;;;;;;;21.17;32.86;100777.11;100664;1368;61138;-80
2021/11/26 02:03:37;;;;;;;;;;;;;;;21.17;32.90;100782.63;100650;1371;73198;-81
2021/11/26 02:06:34;;;;;;;;;;;;;;;21.18;32.92;100777.77;100658;1365;74077;-80
2021/11/26 02:09:12;;;;;;;;;;;;;;;;;;;;;
2021/11/26 02:12:40;;;;;;;;;;;;;;;;;;;;;
2021/11/26 02:15:59;;;;;;;;;;;;;;;;;;;;;
2021/11/26 02:19:12;;;;;;;;;;;;;;;;;;;;;
2021/11/26 02:21:49;;;;;;;;;;;;;;;21.18;32.97;100767.92;100384;1374;60424;-81
2021/11/26 02:25:14;;;;;;;;;;;;;;;;;;;;;
2021/11/26 02:28:05;;;;;;;;;;;;;;;21.18;32.91;100761.64;100379;1371;73423;-81
2021/11/26 02:31:32;;;;;;;;;;;;;;;21.18;32.87;100756.80;100155;1378;72845;-80
2021/11/26 02:34:31;;;;;;;;;;;;;;;;;;;;;
2021/11/26 02:37:35;;;;;;;;;;;;;;;21.18;32.93;100750.35;100435;1365;60383;-81
2021/11/26 02:40:41;;;;;;;;;;;;;;;21.19;32.80;100744.78;100423;1372;72683;-80
2021/11/26 02:43:29;;;;;;;;;;;;;;;21.19;32.96;100743.13;100116;1377;75214;-80
2021/11/26 02:46:45;;;;;;;;;;;;;;;;;;;;;
2021/11/26 02:49:53;;;;;;;;;;;;;;;;;;;;;
2021/11/26 02:53:44;;;;;;;;;;;;;;;21.19;32.78;100723.81;99472;1374;71908;-79
2021/11/26 02:56:36;;;;;;;;;;;;;;;;;;;;;
2021/11/26 02:59:31;;;;;;;;;;;;;;;21.19;32.88;100716.97;99801;1378;60620;-80
2021/11/26 03:02:06;;;;;;;;;;;;;;;21.20;32.84;100702.27;99841;1377;60491;-80
2021/11/26 03:05:25;;;;;;;;;;;;;;;;;;;;;
2021/11/26 03:08:31;;;;;;;;;;;;;;;;;;;;;
2021/11/26 03:11:37;;;;;;;;;;;;;;;21.20;32.77;100687.56;99822;1375;60047;-81
2021/11/26 03:14:22;;;;;;;;;;;;;;;21.21;32.75;100685.91;100175;1377;61477;-80
2021/11/26 03:17:16;;;;;;;;;;;;;;;;;;;;;
2021/11/26 03:20:05;;;;;;;;;;;;;;;21.20;32.77;100681.81;100225;1374;75191;-80
2021/11/26 03:26:06;;;;;;;;;;;;;;;21.21;32.75;100679.48;100474;1368;60470;-81
2021/11/26 03:29:06;;;;;;;;;;;;;;;;;;;;;
2021/11/26 03:31:58;;;;;;;;;;;;;;;;;;;;;
2021/11/26 03:35:04;;;;;;;;;;;;;;;21.20;32.69;100665.91;100645;1368;60316;-81
2021/11/26 03:37:53;;;;;;;;;;;;;;;21.21;32.66;100665.87;101267;1362;62036;-80
2021/11/26 03:40:23;;;;;;;;;;;;;;;21.21;32.66;100665.14;100418;1365;72576;-79
2021/11/26 03:43:19;;;;;;;;;;;;;;;;;;;;;
2021/11/26 03:46:16;;;;;;;;;;;;;;;21.21;32.66;100659.79;100605;1368;61093;-79
2021/11/26 03:49:02;;;;;;;;;;;;;;;21.21;32.75;100645.66;100201;1371;60502;-80
2021/11/26 03:52:08;;;;;;;;;;;;;;;21.20;32.71;100644.95;100190;1377;70455;-81
2021/11/26 03:55:59;;;;;;;;;;;;;;;21.20;32.56;100641.75;100203;1376;72853;-80
2021/11/26 03:58:34;;;;;;;;;;;;;;;21.21;32.65;100639.22;99765;1380;60610;-81
2021/11/26 04:01:53;;;;;;;;;;;;;;;;;;;;;
2021/11/26 04:04:48;;;;;;;;;;;;;;;21.22;32.64;100649.15;100558;1371;73351;-81
2021/11/26 04:07:49;;;;;;;;;;;;;;;21.22;32.59;100644.89;100130;1376;72759;-81
2021/11/26 04:10:59;;;;;;;;;;;;;;;;;;;;;
2021/11/26 04:17:27;;;;;;;;;;;;;;;21.22;32.52;100628.05;99236;1387;73072;-81
2021/11/26 04:20:07;;;;;;;;;;;;;;;21.21;32.54;100633.61;99456;1378;72753;-82
2021/11/26 04:23:31;;;;;;;;;;;;;;;;;;;;;
2021/11/26 04:26:32;;;;;;;;;;;;;;;21.23;32.49;100634.71;99274;1383;60447;-80
2021/11/26 04:29:31;;;;;;;;;;;;;;;;;;;;;
2021/11/26 04:32:57;;;;;;;;;;;;;;;;;;;;;
2021/11/26 04:35:38;;;;;;;;;;;;;;;;;;;;;
2021/11/26 04:38:54;;;;;;;;;;;;;;;21.23;32.42;100624.72;99965;1379;60474;-81
2021/11/26 04:41:39;;;;;;;;;;;;;;;21.23;32.52;100619.71;99984;1377;72965;-81
2021/11/26 04:44:46;;;;;;;;;;;;;;;21.23;32.44;100620.60;99119;1385;72771;-80
2021/11/26 04:47:31;;;;;;;;;;;;;;;21.23;32.52;100618.07;99350;1379;60741;-80
2021/11/26 04:50:48;;;;;;;;;;;;;;;;;;;;;
2021/11/26 04:53:55;;;;;;;;;;;;;;;21.24;32.38;100620.20;99156;1379;71533;-80
2021/11/26 04:57:01;;;;;;;;;;;;;;;;;;;;;
2021/11/26 05:00:05;;;;;;;;;;;;;;;;;;;;;
2021/11/26 05:03:02;;;;;;;;;;;;;;;21.15;32.30;100606.91;99109;1389;61098;-80
2021/11/26 05:06:06;;;;;;;;;;;;;;;21.09;32.12;100599.80;98923;1392;72967;-80
2021/11/26 05:09:13;;;;;;;;;;;;;;;21.05;31.97;100599.39;98803;1394;75497;-80
2021/11/26 05:12:00;;;;;;;;;;;;;;;;;;;;;
2021/11/26 05:15:33;;;;;;;;;;;;;;;21.02;31.81;100599.99;98880;1392;61929;-81
2021/11/26 05:18:23;;;;;;;;;;;;;;;;;;;;;
2021/11/26 05:21:44;;;;;;;;;;;;;;;21.04;31.90;100603.95;98969;1387;74181;-80
2021/11/26 05:24:45;;;;;;;;;;;;;;;21.06;31.93;100604.64;99520;1383;60568;-81
2021/11/26 05:27:34;;;;;;;;;;;;;;;21.08;31.98;100609.51;99529;1379;62987;-80
2021/11/26 05:30:45;;;;;;;;;;;;;;;21.08;31.91;100603.98;99549;1381;72984;-80
2021/11/26 05:33:28;;;;;;;;;;;;;;;21.05;31.96;100601.90;99863;1377;72748;-81
2021/11/26 05:36:28;;;;;;;;;;;;;;;;;;;;;
2021/11/26 05:39:38;;;;;;;;;;;;;;;21.01;31.74;100596.80;100144;1371;61654;-80
2021/11/26 05:42:34;;;;;;;;;;;;;;;;;;;;;
2021/11/26 05:45:29;;;;;;;;;;;;;;;20.95;31.57;100589.41;101153;1356;73973;-80
2021/11/26 05:48:24;;;;;;;;;;;;;;;;;;;;;
2021/11/26 05:51:10;;;;;;;;;;;;;;;20.84;31.51;100593.25;100643;1361;60630;-81
2021/11/26 05:53:39;;;;;;;;;;;;;;;20.77;31.56;100589.98;100597;1362;60306;-79
2021/11/26 05:56:22;;;;;;;;;;;;;;;20.72;31.67;100586.27;100794;1361;75398;-79
2021/11/26 05:58:58;;;;;;;;;;;;;;;20.66;31.69;100583.45;100404;1360;61337;-78
2021/11/26 06:01:29;;;;;;;;;;;;;;;20.60;31.78;100580.99;100205;1361;60826;-79
2021/11/26 06:04:24;;;;;;;;;;;;;;;20.54;31.76;100576.22;100102;1362;72790;-79
2021/11/26 06:06:58;;;;;;;;;;;;;;;20.49;31.73;100575.75;99799;1364;73416;-79
2021/11/26 06:09:32;;;;;;;;;;;;;;;20.45;31.84;100563.86;99947;1364;60583;-79
2021/11/26 06:12:04;;;;;;;;;;;;;;;20.43;31.92;100556.11;99957;1364;60440;-78
2021/11/26 06:14:48;;;;;;;;;;;;;;;20.42;31.84;100547.60;99714;1364;73982;-78
2021/11/26 06:17:21;;;;;;;;;;;;;;;20.44;31.82;100545.00;100459;1358;75455;-80
2021/11/26 06:20:19;;;;;;;;;;;;;;;;;;;;;
2021/11/26 06:23:00;;;;;;;;;;;;;;;20.52;31.89;100533.33;100750;1356;60523;-80
2021/11/26 06:25:46;;;;;;;;;;;;;;;20.57;31.75;100531.34;100532;1358;73220;-77
2021/11/26 06:28:57;;;;;;;;;;;;;;;20.62;31.86;100530.42;100654;1358;74445;-80
2021/11/26 06:31:23;;;;;;;;;;;;;;;20.67;31.97;100527.95;100818;1352;60629;-80
2021/11/26 06:34:12;;;;;;;;;;;;;;;20.72;31.94;100543.35;100920;1355;62280;-80
2021/11/26 06:36:38;;;;;;;;;;;;;;;20.75;32.04;100535.75;100638;1358;72797;-80
2021/11/26 06:39:31;;;;;;;;;;;;;;;20.80;32.14;100529.54;100554;1359;74289;-78
2021/11/26 06:42:05;;;;;;;;;;;;;;;20.84;32.06;100526.54;100436;1358;62916;-79
2021/11/26 06:45:19;;;;;;;;;;;;;;;20.88;32.13;100526.07;100423;1359;62064;-78
2021/11/26 06:47:51;;;;;;;;;;;;;;;20.91;32.22;100523.45;101214;1358;72594;-79
2021/11/26 06:50:26;;;;;;;;;;;;;;;20.95;32.33;100513.90;100583;1358;75273;-79
2021/11/26 06:53:12;;;;;;;;;;;;;;;20.98;32.47;100515.83;101877;1356;59886;-80
2021/11/26 06:55:37;;;;;;;;;;;;;;;21.00;32.49;100512.15;101769;1355;60191;-80
2021/11/26 06:58:03;;;;;;;;;;;;;;;20.96;32.47;100513.30;101801;1359;59951;-79
2021/11/26 07:00:37;;;;;;;;;;;;;;;20.89;32.55;100516.66;100627;1359;60583;-79
2021/11/26 07:03:05;;;;;;;;;;;;;;;20.82;32.69;100515.43;100282;1358;61637;-78
2021/11/26 07:05:36;;;;;;;;;;;;;;;20.76;32.69;100523.75;100530;1356;60682;-78
2021/11/26 07:08:02;;;;;;;;;;;;;;;20.72;32.77;100535.77;100617;1358;72978;-78
2021/11/26 07:10:28;;;;;;;;;;;;;;;20.70;32.68;100535.59;101341;1356;59673;-78
2021/11/26 07:12:59;;;;;;;;;;;;;;;20.70;32.68;100534.54;100731;1355;60418;-78
2021/11/26 07:15:47;;;;;;;;;;;;;;;20.72;32.57;100541.19;101157;1352;60459;-78
2021/11/26 07:18:31;;;;;;;;;;;;;;;20.75;32.65;100537.40;100912;1353;71967;-79
2021/11/26 07:21:04;;;;;;;;;;;;;;;20.78;32.57;100534.30;101015;1349;74971;-78
2021/11/26 07:23:50;;;;;;;;;;;;;;;20.81;32.57;100535.86;101351;1344;61185;-78
2021/11/26 07:26:25;;;;;;;;;;;;;;;20.85;32.65;100539.55;101440;1344;62623;-78
2021/11/26 07:28:51;;;;;;;;;;;;;;;20.88;32.78;100533.93;101329;1344;72895;-78
2021/11/26 07:31:27;;;;;;;;;;;;;;;20.91;32.73;100525.81;101259;1344;60522;-78
2021/11/26 07:34:04;;;;;;;;;;;;;;;20.95;32.84;100520.20;101488;1344;60342;-78
2021/11/26 07:36:32;;;;;;;;;;;;;;;20.97;33.02;100515.34;101475;1344;60385;-78
2021/11/26 07:39:03;;;;;;;;;;;;;;;20.99;33.14;100503.38;101334;1346;74246;-77
2021/11/26 07:41:47;;;;;;;;;;;;;;;21.01;32.97;100486.80;101375;1347;74073;-79
2021/11/26 07:47:28;;;;;;;;;;;;;;;21.04;33.25;100466.48;100618;1356;60760;-78
2021/11/26 07:49:54;;;;;;;;;;;;;;;21.06;33.32;100451.56;100685;1359;73047;-78
2021/11/26 07:52:38;;;;;;;;;;;;;;;;;;;;;
2021/11/26 07:55:31;;;;;;;;;;;;;;;;;;;;;
2021/11/26 07:57:56;;;;;;;;;;;;;;;20.87;33.25;100419.84;101945;1358;60884;-80
2021/11/26 08:00:22;;;;;;;;;;;;;;;20.75;33.18;100409.71;101474;1358;59693;-79
2021/11/26 08:02:55;;;;;;;;;;;;;;;20.62;33.23;100401.14;100398;1358;60596;-79
2021/11/26 08:05:34;;;;;;;;;;;;;;;;;;;;;
2021/11/26 08:08:01;;;;;;;;;;;;;;;20.51;33.22;100387.71;101107;1361;61525;-79
2021/11/26 08:10:27;;;;;;;;;;;;;;;20.50;33.22;100383.45;100503;1358;72838;-79
2021/11/26 08:13:15;;;;;;;;;;;;;;;20.48;33.03;100367.04;100380;1361;73276;-79
2021/11/26 08:15:50;;;;;;;;;;;;;;;20.45;33.11;100354.19;100539;1358;60602;-78
2021/11/26 08:18:16;;;;;;;;;;;;;;;20.44;33.10;100348.70;100561;1358;61421;-79
2021/11/26 08:20:55;;;;;;;;;;;;;;;;;;;;;
2021/11/26 08:23:21;;;;;;;;;;;;;;;20.49;32.96;100347.13;100623;1358;74852;-79
2021/11/26 08:26:10;;;;;;;;;;;;;;;20.52;32.93;100345.23;101344;1343;60664;-79
2021/11/26 08:29:01;;;;;;;;;;;;;;;20.56;32.96;100345.13;101071;1349;60552;-78
2021/11/26 08:31:29;;;;;;;;;;;;;;;20.61;32.85;100345.69;100984;1350;72830;-80
2021/11/26 08:33:57;;;;;;;;;;;;;;;20.64;32.75;100346.14;100959;1353;75088;-78
2021/11/26 08:36:25;;;;;;;;;;;;;;;20.65;32.77;100352.48;101093;1350;61381;-78
2021/11/26 08:39:12;;;;;;;;;;;;;;;;;;;;;
2021/11/26 08:41:41;;;;;;;;;;;;;;;20.71;32.70;100361.34;102467;1353;73575;-79
2021/11/26 08:44:17;;;;;;;;;;;;;;;20.74;32.75;100363.30;102305;1354;75312;-79
2021/11/26 08:46:45;;;;;;;;;;;;;;;20.77;32.77;100356.63;101002;1352;60390;-78
2021/11/26 08:49:34;;;;;;;;;;;;;;;20.80;32.79;100353.39;101046;1350;61675;-79
2021/11/26 08:52:11;;;;;;;;;;;;;;;20.83;32.77;100354.02;101278;1349;73743;-79
2021/11/26 08:54:51;;;;;;;;;;;;;;;20.79;32.69;100360.20;101160;1350;75416;-79
2021/11/26 08:57:18;;;;;;;;;;;;;;;20.72;32.79;100357.33;101163;1357;60506;-78
2021/11/26 08:59:53;;;;;;;;;;;;;;;20.57;32.67;100346.50;101507;1349;60923;-80
2021/11/26 09:02:18;;;;;;;;;;;;;;;20.36;32.75;100340.38;101336;1360;59302;-79
2021/11/26 09:04:43;;;;;;;;;;;;;;;20.23;32.77;100326.88;101174;1358;58746;-79
2021/11/26 09:07:09;;;;;;;;;;;;;;;20.20;33.09;100315.85;102720;1344;58946;-79
2021/11/26 09:09:34;;;;;;;;;;;;;;;20.23;33.11;100309.20;102745;1346;58438;-78
2021/11/26 09:12:03;;;;;;;;;;;;;;;20.29;33.12;100303.23;102473;1350;60569;-79
2021/11/26 09:14:32;;;;;;;;;;;;;;;20.35;33.10;100280.38;101549;1347;71823;-78
2021/11/26 09:17:00;;;;;;;;;;;;;;;20.41;33.17;100261.70;101691;1344;75173;-77
2021/11/26 09:20:07;;;;;;;;;;;;;;;20.48;33.22;100249.19;101624;1344;60418;-78
2021/11/26 09:22:52;;;;;;;;;;;;;;;20.55;33.24;100233.08;101720;1343;60757;-78
2021/11/26 09:25:18;;;;;;;;;;;;;;;20.62;33.28;100225.24;102789;1347;72607;-78
2021/11/26 09:27:43;;;;;;;;;;;;;;;20.68;33.42;100217.31;102782;1344;58887;-78
2021/11/26 09:30:16;;;;;;;;;;;;;;;20.73;33.58;100206.86;102764;1346;60450;-78
2021/11/26 09:32:53;;;;;;;;;;;;;;;20.78;33.73;100201.11;101620;1351;61604;-79
2021/11/26 09:35:19;;;;;;;;;;;;;;;20.84;33.80;100198.50;101417;1343;72742;-78
2021/11/26 09:37:58;;;;;;;;;;;;;;;20.89;33.91;100182.73;101295;1343;76353;-78
2021/11/26 09:40:37;;;;;;;;;;;;;;;;;;;;;
2021/11/26 09:43:16;;;;;;;;;;;;;;;20.98;34.06;100159.17;101701;1344;61495;-78
2021/11/26 09:45:42;;;;;;;;;;;;;;;20.99;34.25;100163.70;101488;1344;73906;-77
2021/11/26 09:48:19;;;;;;;;;;;;;;;;;;;;;
2021/11/26 09:51:05;;;;;;;;;;;;;;;21.02;34.33;100168.45;102795;1344;59940;-79
2021/11/26 09:53:31;;;;;;;;;;;;;;;20.97;34.31;100179.79;102728;1347;61840;-80
2021/11/26 09:56:15;;;;;;;;;;;;;;;20.84;34.12;100192.23;102744;1343;73765;-78
2021/11/26 09:58:41;;;;;;;;;;;;;;;20.68;34.15;100195.60;102768;1346;58748;-79
2021/11/26 10:01:07;;;;;;;;;;;;;;;20.55;34.01;100192.94;102688;1344;58338;-79
2021/11/26 10:03:40;;;;;;;;;;;;;;;20.39;34.09;100185.00;101757;1359;58849;-79
2021/11/26 10:06:17;;;;;;;;;;;;;;;20.29;34.06;100172.27;102864;1343;72756;-79
2021/11/26 10:08:42;;;;;;;;;;;;;;;20.26;34.11;100172.09;102354;1343;75033;-79
2021/11/26 10:11:22;;;;;;;;;;;;;;;20.24;34.17;100182.41;101322;1347;60741;-78
2021/11/26 10:14:13;;;;;;;;;;;;;;;20.25;34.28;100176.28;101534;1344;60471;-78
2021/11/26 10:16:55;;;;;;;;;;;;;;;20.24;33.95;100173.13;101524;1344;73983;-79
2021/11/26 10:19:50;;;;;;;;;;;;;;;20.23;34.05;100169.79;101493;1344;75059;-78
2021/11/26 10:22:48;;;;;;;;;;;;;;;20.24;34.04;100159.38;101181;1350;60391;-79
2021/11/26 10:25:25;;;;;;;;;;;;;;;20.22;34.15;100155.09;101018;1352;61938;-80
2021/11/26 10:27:56;;;;;;;;;;;;;;;20.17;33.93;100155.09;101081;1350;74876;-80
2021/11/26 10:30:48;;;;;;;;;;;;;;;20.08;34.05;100147.70;101106;1350;73970;-80
2021/11/26 10:33:55;;;;;;;;;;;;;;;20.08;33.93;100129.67;100703;1356;60736;-79
2021/11/26 10:36:50;;;;;;;;;;;;;;;20.01;33.85;100109.69;100757;1357;62222;-80
2021/11/26 10:39:25;;;;;;;;;;;;;;;19.99;33.87;100093.83;101037;1356;73916;-79
2021/11/26 10:42:36;;;;;;;;;;;;;;;20.00;33.93;100082.81;100414;1358;73870;-79
2021/11/26 10:45:18;;;;;;;;;;;;;;;20.02;33.98;100065.19;100280;1362;60501;-78
2021/11/26 10:50:55;;;;;;;;;;;;;;;20.13;33.96;100031.81;99721;1367;72631;-78
2021/11/26 10:59:09;;;;;;;;;;;;;;;19.76;33.92;99993.34;100964;1370;60525;-79
2021/11/26 11:02:02;;;;;;;;;;;;;;;19.74;33.96;99979.27;101366;1364;72825;-80
2021/11/26 11:04:28;;;;;;;;;;;;;;;19.77;34.04;99972.79;101227;1364;73813;-79
2021/11/26 11:07:00;;;;;;;;;;;;;;;19.81;34.06;99970.22;100615;1368;505314;-79
2021/11/26 11:09:26;;;;;;;;;;;;;;;19.84;34.07;99965.33;100456;1371;61620;-80
2021/11/26 11:12:06;;;;;;;;;;;;;;;19.89;34.12;99963.09;101414;1361;72721;-79
2021/11/26 11:14:53;;;;;;;;;;;;;;;19.93;34.11;99956.73;101544;1365;73810;-78
2021/11/26 11:17:24;;;;;;;;;;;;;;;19.97;34.31;99953.41;101608;1362;60294;-78
2021/11/26 11:19:52;;;;;;;;;;;;;;;20.04;34.32;99950.80;101614;1365;60460;-79
2021/11/26 11:22:17;;;;;;;;;;;;;;;20.12;34.30;99943.98;101773;1356;72813;-78
2021/11/26 11:24:44;;;;;;;;;;;;;;;20.19;34.38;99944.13;102067;1355;58826;-78
2021/11/26 11:27:09;;;;;;;;;;;;;;;20.26;34.36;99932.27;102194;1353;58527;-78
2021/11/26 11:29:35;;;;;;;;;;;;;;;20.33;34.47;99929.41;102586;1350;58842;-78
2021/11/26 11:32:02;;;;;;;;;;;;;;;20.40;34.53;99928.66;102642;1347;59017;-79
2021/11/26 11:34:28;;;;;;;;;;;;;;;20.47;34.60;99921.87;102604;1350;58781;-79
2021/11/26 11:36:54;;;;;;;;;;;;;;;20.51;34.61;99904.73;102510;1349;60585;-79
2021/11/26 11:39:21;;;;;;;;;;;;;;;20.50;34.46;99896.55;101189;1350;60711;-79
2021/11/26 11:41:53;;;;;;;;;;;;;;;20.45;34.47;99890.70;101209;1350;60639;-78
2021/11/26 11:44:49;;;;;;;;;;;;;;;20.44;34.41;99890.27;101474;1344;75009;-78
2021/11/26 11:47:35;;;;;;;;;;;;;;;20.44;34.47;99884.34;102842;1343;60008;-80
2021/11/26 11:50:11;;;;;;;;;;;;;;;20.43;34.34;99878.53;101896;1349;60537;-79
2021/11/26 11:52:38;;;;;;;;;;;;;;;20.40;34.34;99863.98;102805;1344;73091;-79
2021/11/26 11:55:03;;;;;;;;;;;;;;;20.39;34.29;99853.65;102686;1344;58792;-79
2021/11/26 11:57:30;;;;;;;;;;;;;;;20.32;34.18;99848.77;102703;1344;58814;-79
2021/11/26 12:00:13;;;;;;;;;;;;;;;20.16;34.00;99836.24;102741;1344;58833;-79
2021/11/26 12:02:38;;;;;;;;;;;;;;;20.02;34.11;99820.30;102779;1344;73450;-79
2021/11/26 12:05:05;;;;;;;;;;;;;;;19.98;34.08;99809.15;102735;1342;58757;-79
2021/11/26 12:07:31;;;;;;;;;;;;;;;19.92;34.03;99803.20;102786;1344;58348;-80
2021/11/26 12:10:17;;;;;;;;;;;;;;;19.69;33.82;99799.19;102802;1350;58196;-79
2021/11/26 12:12:49;;;;;;;;;;;;;;;19.54;34.09;99807.86;102921;1343;72605;-80
2021/11/26 12:15:22;;;;;;;;;;;;;;;19.58;34.19;99805.06;102790;1347;74274;-79
2021/11/26 12:17:54;;;;;;;;;;;;;;;19.54;34.16;99797.49;102841;1347;60005;-80
2021/11/26 12:20:21;;;;;;;;;;;;;;;19.44;34.14;99775.15;102847;1348;59140;-80
2021/11/26 12:22:52;;;;;;;;;;;;;;;19.44;34.20;99773.55;102852;1350;71710;-80
2021/11/26 12:25:19;;;;;;;;;;;;;;;19.36;34.13;99773.11;102867;1347;73972;-79
2021/11/26 12:27:53;;;;;;;;;;;;;;;19.26;34.17;99777.11;102944;1344;60657;-79
2021/11/26 12:30:19;;;;;;;;;;;;;;;19.17;34.11;99784.04;102819;1344;60168;-80
2021/11/26 12:32:45;;;;;;;;;;;;;;;19.18;34.20;99774.73;102818;1349;58531;-80
2021/11/26 12:35:25;;;;;;;;;;;;;;;19.25;34.31;99775.07;101787;1347;60519;-81
2021/11/26 12:37:59;;;;;;;;;;;;;;;19.33;34.37;99757.59;101688;1348;60403;-78
2021/11/26 12:40:56;;;;;;;;;;;;;;;;;;;;;
2021/11/26 12:43:34;;;;;;;;;;;;;;;19.49;34.31;99757.40;101470;1347;72781;-79
2021/11/26 12:46:10;;;;;;;;;;;;;;;19.56;34.30;99773.12;101624;1346;74505;-78
2021/11/26 12:48:45;;;;;;;;;;;;;;;19.63;34.49;99776.47;101615;1344;61207;-79
2021/11/26 12:51:24;;;;;;;;;;;;;;;;;;;;;
2021/11/26 12:54:08;;;;;;;;;;;;;;;;;;;;;
2021/11/26 12:56:55;;;;;;;;;;;;;;;19.76;34.26;99733.48;102830;1346;73130;-80
2021/11/26 12:59:31;;;;;;;;;;;;;;;19.79;34.16;99717.89;102936;1347;58380;-80
2021/11/26 13:01:57;;;;;;;;;;;;;;;19.80;34.25;99716.20;102932;1349;60666;-79
2021/11/26 13:04:22;;;;;;;;;;;;;;;19.82;34.04;99716.40;102960;1341;58681;-79
2021/11/26 13:06:49;;;;;;;;;;;;;;;19.83;34.11;99717.56;102876;1345;58737;-79
2021/11/26 13:09:22;;;;;;;;;;;;;;;19.83;34.10;99717.70;102414;1345;59224;-79
2021/11/26 13:12:06;;;;;;;;;;;;;;;19.84;34.17;99727.86;101819;1344;60608;-79
2021/11/26 13:14:54;;;;;;;;;;;;;;;19.84;34.06;99734.61;101477;1350;72895;-79
2021/11/26 13:18:09;;;;;;;;;;;;;;;19.84;34.09;99763.19;101734;1345;72865;-78
2021/11/26 13:20:57;;;;;;;;;;;;;;;19.84;34.02;99765.14;102028;1351;60442;-78
2021/11/26 13:27:13;;;;;;;;;;;;;;;19.93;33.95;99739.44;101300;1356;73896;-80
2021/11/26 13:30:29;;;;;;;;;;;;;;;;;;;;;
2021/11/26 13:33:50;;;;;;;;;;;;;;;;;;;;;
2021/11/26 13:37:00;;;;;;;;;;;;;;;;;;;;;
2021/11/26 13:46:42;;;;;;;;;;;;;;;20.33;33.54;99691.06;100526;1370;60453;-80
2021/11/26 13:49:37;;;;;;;;;;;;;;;;;;;;;
2021/11/26 13:52:32;;;;;;;;;;;;;;;20.49;33.73;99676.85;99878;1378;74215;-80
2021/11/26 13:55:27;;;;;;;;;;;;;;;20.52;33.74;99673.30;99885;1374;73445;-81
2021/11/26 13:58:23;;;;;;;;;;;;;;;;;;;;;
2021/11/26 14:01:52;;;;;;;;;;;;;;;;;;;;;
2021/11/26 14:05:01;;;;;;;;;;;;;;;20.63;33.66;99650.55;98289;1398;73542;-79
2021/11/26 14:07:36;;;;;;;;;;;;;;;20.64;33.79;99644.05;98521;1387;75118;-79
2021/11/26 14:10:42;;;;;;;;;;;;;;;20.64;33.81;99639.39;98666;1388;61845;-80
2021/11/26 14:13:32;;;;;;;;;;;;;;;20.65;33.83;99632.34;98931;1386;60676;-80
2021/11/26 14:16:27;;;;;;;;;;;;;;;20.66;33.88;99645.28;99090;1386;73133;-80
2021/11/26 14:19:20;;;;;;;;;;;;;;;20.67;33.89;99646.30;98990;1389;73949;-79
2021/11/26 14:22:10;;;;;;;;;;;;;;;;;;;;;
2021/11/26 14:25:51;;;;;;;;;;;;;;;;;;;;;
2021/11/26 14:28:52;;;;;;;;;;;;;;;;;;;;;
2021/11/26 14:32:00;;;;;;;;;;;;;;;;;;;;;
2021/11/26 14:34:48;;;;;;;;;;;;;;;20.53;34.40;99621.94;99473;1373;60691;-78
2021/11/26 14:37:54;;;;;;;;;;;;;;;;;;;;;
2021/11/26 14:40:56;;;;;;;;;;;;;;;20.48;34.47;99634.69;101259;1352;72599;-79
2021/11/26 14:44:02;;;;;;;;;;;;;;;20.45;34.60;99627.48;101403;1353;73038;-79
2021/11/26 14:47:06;;;;;;;;;;;;;;;20.45;34.82;99611.77;101445;1350;61186;-79
2021/11/26 14:50:01;;;;;;;;;;;;;;;;;;;;;
2021/11/26 14:53:06;;;;;;;;;;;;;;;20.39;34.74;99598.11;100957;1355;73466;-79
2021/11/26 14:55:52;;;;;;;;;;;;;;;20.39;34.79;99581.92;101534;1368;72753;-80
2021/11/26 14:58:19;;;;;;;;;;;;;;;20.39;34.84;99572.25;101317;1365;58312;-79
2021/11/26 15:01:20;;;;;;;;;;;;;;;;;;;;;
2021/11/26 15:04:42;;;;;;;;;;;;;;;20.39;34.89;99556.50;100536;1368;72538;-79
2021/11/26 15:07:25;;;;;;;;;;;;;;;20.39;34.83;99569.92;100429;1362;72965;-80
2021/11/26 15:10:42;;;;;;;;;;;;;;;20.39;34.84;99570.46;100438;1361;60415;-79
2021/11/26 15:13:46;;;;;;;;;;;;;;;20.37;34.84;99556.45;99914;1370;61046;-80
2021/11/26 15:17:03;;;;;;;;;;;;;;;20.37;34.85;99555.58;99297;1376;72553;-79
2021/11/26 15:19:59;;;;;;;;;;;;;;;;;;;;;
2021/11/26 15:23:06;;;;;;;;;;;;;;;20.37;34.83;99545.61;99770;1377;60521;-79
2021/11/26 15:25:55;;;;;;;;;;;;;;;20.36;34.81;99535.13;99760;1371;61983;-79
2021/11/26 15:29:01;;;;;;;;;;;;;;;20.35;34.78;99523.95;100201;1372;71715;-79
2021/11/26 15:31:57;;;;;;;;;;;;;;;20.35;34.87;99526.33;100236;1370;74804;-79
2021/11/26 15:34:45;;;;;;;;;;;;;;;20.34;34.83;99525.36;100886;1361;60588;-79
2021/11/26 15:37:54;;;;;;;;;;;;;;;20.33;34.78;99518.43;100777;1361;60578;-79
2021/11/26 15:40:53;;;;;;;;;;;;;;;;;;;;;
2021/11/26 15:44:05;;;;;;;;;;;;;;;20.32;34.80;99527.27;100213;1365;75590;-79
2021/11/26 15:47:14;;;;;;;;;;;;;;;20.32;34.75;99542.81;99947;1374;60621;-78
2021/11/26 15:50:24;;;;;;;;;;;;;;;20.32;34.79;99536.41;100102;1371;60447;-79
2021/11/26 15:53:41;;;;;;;;;;;;;;;;;;;;;
2021/11/26 15:56:50;;;;;;;;;;;;;;;20.31;34.88;99551.48;101064;1362;75714;-78
2021/11/26 15:59:34;;;;;;;;;;;;;;;;;;;;;
2021/11/26 16:02:28;;;;;;;;;;;;;;;20.30;34.82;99548.70;101921;1358;60716;-79
2021/11/26 16:05:16;;;;;;;;;;;;;;;20.30;34.96;99552.61;100942;1365;60660;-77
2021/11/26 16:08:07;;;;;;;;;;;;;;;;;;;;;
2021/11/26 16:10:54;;;;;;;;;;;;;;;20.31;34.87;99548.13;100956;1362;60531;-78
2021/11/26 16:14:08;;;;;;;;;;;;;;;20.30;34.94;99549.23;100937;1358;60660;-79
2021/11/26 16:17:04;;;;;;;;;;;;;;;;;;;;;
2021/11/26 16:20:21;;;;;;;;;;;;;;;;;;;;;
2021/11/26 16:23:47;;;;;;;;;;;;;;;;;;;;;
2021/11/26 16:26:56;;;;;;;;;;;;;;;20.28;34.98;99518.70;100141;1370;60572;-81
2021/11/26 16:36:49;;;;;;;;;;;;;;;;;;;;;
2021/11/26 16:39:45;;;;;;;;;;;;;;;20.28;35.03;99482.42;98922;1393;61199;-81
2021/11/26 16:42:44;;;;;;;;;;;;;;;;;;;;;
2021/11/26 16:45:54;;;;;;;;;;;;;;;20.27;35.04;99475.36;98234;1397;72868;-80
2021/11/26 16:49:12;;;;;;;;;;;;;;;;;;;;;
2021/11/26 16:52:14;;;;;;;;;;;;;;;20.27;35.20;99468.06;97469;1404;60682;-79
2021/11/26 16:55:23;;;;;;;;;;;;;;;;;;;;;
2021/11/26 16:58:39;;;;;;;;;;;;;;;;;;;;;